createdAt,value
2017-06-01T00:02:07.485Z,45.00
2017-06-01T00:04:34.789Z,44.60
2017-06-01T00:07:02.448Z,45.30
2017-06-01T00:09:29.812Z,47.10
2017-06-01T00:11:57.193Z,47.10
2017-06-01T00:14:24.488Z,47.40
2017-06-01T00:16:51.788Z,45.80
2017-06-01T00:19:18.989Z,47.60
2017-06-01T00:21:46.328Z,45.80
2017-06-01T00:24:13.696Z,46.60
2017-06-01T00:26:48.869Z,47.50
2017-06-01T00:29:16.187Z,47.50
2017-06-01T00:31:43.821Z,48.70
2017-06-01T00:34:11.176Z,49.30
2017-06-01T00:36:37.772Z,49.30
2017-06-01T00:39:05.021Z,50.70
2017-06-01T00:41:32.248Z,51.10
2017-06-01T00:43:59.609Z,48.80
2017-06-01T00:46:26.933Z,49.80
2017-06-01T00:48:54.368Z,47.20
2017-06-01T00:51:21.693Z,48.90
2017-06-01T00:53:48.911Z,47.70
2017-06-01T00:56:16.259Z,49.30
2017-06-01T00:58:43.525Z,47.80
2017-06-01T01:01:10.862Z,48.10
2017-06-01T01:03:38.241Z,51.30
2017-06-01T01:06:05.950Z,51.20
2017-06-01T01:08:33.271Z,50.50
2017-06-01T01:11:00.582Z,51.40
2017-06-01T01:13:27.884Z,51.90
2017-06-01T01:15:55.199Z,51.10
2017-06-01T01:18:22.393Z,51.30
2017-06-01T01:20:49.800Z,51.30
2017-06-01T01:23:17.132Z,52.50
2017-06-01T01:25:44.353Z,52.20
2017-06-01T01:28:11.670Z,51.80
2017-06-01T01:30:38.926Z,52.10
2017-06-01T01:33:06.748Z,52.10
2017-06-01T01:35:34.085Z,52.40
2017-06-01T01:38:01.450Z,52.70
2017-06-01T01:40:27.924Z,52.80
2017-06-01T01:42:55.305Z,53.80
2017-06-01T01:45:22.577Z,52.70
2017-06-01T01:47:49.929Z,53.00
2017-06-01T01:50:17.152Z,51.60
2017-06-01T01:52:44.509Z,53.70
2017-06-01T01:55:11.856Z,53.90
2017-06-01T01:57:39.241Z,54.00
2017-06-01T02:00:06.570Z,52.00
2017-06-01T02:02:33.912Z,52.40
2017-06-01T02:05:01.365Z,52.70
2017-06-01T02:07:28.696Z,54.00
2017-06-01T02:09:56.137Z,53.90
2017-06-01T02:12:23.465Z,55.00
2017-06-01T02:14:57.768Z,54.20
2017-06-01T02:17:25.020Z,54.90
2017-06-01T02:19:52.751Z,53.50
2017-06-01T02:22:19.952Z,54.30
2017-06-01T02:24:47.308Z,54.00
2017-06-01T02:27:14.668Z,55.20
2017-06-01T02:29:41.944Z,54.70
2017-06-01T02:32:09.300Z,54.90
2017-06-01T02:34:37.017Z,54.20
2017-06-01T02:37:04.409Z,54.70
2017-06-01T02:39:31.766Z,54.20
2017-06-01T02:41:59.149Z,53.90
2017-06-01T02:44:26.511Z,54.80
2017-06-01T02:46:54.008Z,55.40
2017-06-01T02:49:21.368Z,56.50
2017-06-01T02:51:48.669Z,55.80
2017-06-01T02:54:16.012Z,55.30
2017-06-01T02:56:43.339Z,56.50
2017-06-01T02:59:10.599Z,54.90
2017-06-01T03:01:38.007Z,54.90
2017-06-01T03:04:05.676Z,55.20
2017-06-01T03:06:33.020Z,55.60
2017-06-01T03:09:00.390Z,55.80
2017-06-01T03:11:27.717Z,54.80
2017-06-01T03:13:55.098Z,55.40
2017-06-01T03:16:22.588Z,55.00
2017-06-01T03:18:50.013Z,54.50
2017-06-01T03:21:17.375Z,55.30
2017-06-01T03:23:44.692Z,54.40
2017-06-01T03:26:12.073Z,55.20
2017-06-01T03:28:39.432Z,54.90
2017-06-01T03:31:06.818Z,53.80
2017-06-01T03:33:33.419Z,53.80
2017-06-01T03:36:00.801Z,54.50
2017-06-01T03:38:27.360Z,54.50
2017-06-01T03:40:54.729Z,55.70
2017-06-01T03:43:22.181Z,55.20
2017-06-01T03:45:49.537Z,54.00
2017-06-01T03:48:16.768Z,55.10
2017-06-01T03:50:44.128Z,55.20
2017-06-01T03:53:11.452Z,56.00
2017-06-01T03:55:38.868Z,55.00
2017-06-01T03:58:06.192Z,56.20
2017-06-01T04:00:33.548Z,55.60
2017-06-01T04:03:00.900Z,54.50
2017-06-01T04:05:28.360Z,57.00
2017-06-01T04:07:55.708Z,56.80
2017-06-01T04:10:23.052Z,57.00
2017-06-01T04:12:50.413Z,56.00
2017-06-01T04:15:17.761Z,56.40
2017-06-01T04:17:45.085Z,56.60
2017-06-01T04:20:12.465Z,56.20
2017-06-01T04:22:39.940Z,56.50
2017-06-01T04:25:07.301Z,55.50
2017-06-01T04:27:34.741Z,55.40
2017-06-01T04:30:02.044Z,52.00
2017-06-01T04:32:29.359Z,54.10
2017-06-01T04:34:56.694Z,53.00
2017-06-01T04:37:24.056Z,52.00
2017-06-01T04:39:51.437Z,54.10
2017-06-01T04:42:18.807Z,52.60
2017-06-01T04:44:46.048Z,53.30
2017-06-01T04:47:13.249Z,51.10
2017-06-01T04:49:40.592Z,51.50
2017-06-01T04:52:07.926Z,51.00
2017-06-01T04:54:35.265Z,51.00
2017-06-01T04:57:02.604Z,51.90
2017-06-01T04:59:31.245Z,50.50
2017-06-01T05:01:58.696Z,51.20
2017-06-01T05:04:25.893Z,51.20
2017-06-01T05:06:53.298Z,51.10
2017-06-01T05:09:20.624Z,51.70
2017-06-01T05:11:48.145Z,51.30
2017-06-01T05:14:15.468Z,51.20
2017-06-01T05:16:42.752Z,51.10
2017-06-01T05:19:10.041Z,51.90
2017-06-01T05:21:36.619Z,51.90
2017-06-01T05:24:03.976Z,52.10
2017-06-01T05:26:31.209Z,50.80
2017-06-01T05:28:58.452Z,51.10
2017-06-01T05:31:25.745Z,50.40
2017-06-01T05:33:53.078Z,49.90
2017-06-01T05:36:19.584Z,49.90
2017-06-01T05:38:46.908Z,49.40
2017-06-01T05:41:14.229Z,49.20
2017-06-01T05:43:41.558Z,51.00
2017-06-01T05:46:08.848Z,51.10
2017-06-01T05:48:36.164Z,48.40
2017-06-01T05:51:03.472Z,49.20
2017-06-01T05:53:30.692Z,48.70
2017-06-01T05:56:04.827Z,48.30
2017-06-01T05:58:32.081Z,48.00
2017-06-01T06:00:59.436Z,47.40
2017-06-01T06:03:26.785Z,47.20
2017-06-01T06:05:54.069Z,48.00
2017-06-01T06:08:21.368Z,48.40
2017-06-01T06:10:48.708Z,47.50
2017-06-01T06:13:16.009Z,49.10
2017-06-01T06:15:43.344Z,50.00
2017-06-01T06:18:10.547Z,48.60
2017-06-01T06:20:37.894Z,47.80
2017-06-01T06:23:05.365Z,47.50
2017-06-01T06:25:32.698Z,47.90
2017-06-01T06:28:00.013Z,47.30
2017-06-01T06:30:27.321Z,47.40
2017-06-01T06:32:54.993Z,47.40
2017-06-01T06:35:22.297Z,46.00
2017-06-01T06:37:49.610Z,47.30
2017-06-01T06:40:16.982Z,47.20
2017-06-01T06:42:44.315Z,46.70
2017-06-01T06:45:11.608Z,47.40
2017-06-01T06:47:39.003Z,48.80
2017-06-01T06:50:06.292Z,46.40
2017-06-01T06:52:32.969Z,46.20
2017-06-01T06:55:00.028Z,46.90
2017-06-01T06:57:27.088Z,46.80
2017-06-01T06:59:54.149Z,46.30
2017-06-01T07:02:21.258Z,46.60
2017-06-01T07:04:48.389Z,47.10
2017-06-01T07:07:15.462Z,46.70
2017-06-01T07:09:42.577Z,45.80
2017-06-01T07:12:09.629Z,44.80
2017-06-01T07:14:36.702Z,43.80
2017-06-01T07:17:03.005Z,43.90
2017-06-01T07:19:30.164Z,44.80
2017-06-01T07:21:56.498Z,44.70
2017-06-01T07:24:23.573Z,45.20
2017-06-01T07:26:50.653Z,44.20
2017-06-01T07:29:17.760Z,43.80
2017-06-01T07:31:44.876Z,43.50
2017-06-01T07:34:11.948Z,43.90
2017-06-01T07:36:39.221Z,44.40
2017-06-01T07:39:06.310Z,43.40
2017-06-01T07:41:33.362Z,43.60
2017-06-01T07:44:00.428Z,43.50
2017-06-01T07:46:27.500Z,45.10
2017-06-01T07:48:54.560Z,43.30
2017-06-01T07:51:21.644Z,43.20
2017-06-01T07:53:48.714Z,42.00
2017-06-01T07:56:15.793Z,44.30
2017-06-01T07:58:42.958Z,44.30
2017-06-01T08:01:10.018Z,41.80
2017-06-01T08:03:37.088Z,40.40
2017-06-01T08:06:04.143Z,42.00
2017-06-01T08:08:31.204Z,41.20
2017-06-01T08:10:58.250Z,39.90
2017-06-01T08:13:25.311Z,37.40
2017-06-01T08:15:52.418Z,34.40
2017-06-01T08:18:19.842Z,32.40
2017-06-01T08:20:46.904Z,33.00
2017-06-01T08:23:13.967Z,31.20
2017-06-01T08:25:41.073Z,29.30
2017-06-01T08:28:08.176Z,26.80
2017-06-01T08:30:35.311Z,27.40
2017-06-01T08:33:02.426Z,26.50
2017-06-01T08:35:29.505Z,24.60
2017-06-01T08:37:56.640Z,23.90
2017-06-01T08:40:23.998Z,23.40
2017-06-01T08:42:51.061Z,24.70
2017-06-01T08:45:18.361Z,24.80
2017-06-01T08:47:45.485Z,24.50
2017-06-01T08:50:12.558Z,25.60
2017-06-01T08:52:40.218Z,25.30
2017-06-01T08:55:07.326Z,26.00
2017-06-01T08:57:34.407Z,28.20
2017-06-01T09:00:01.474Z,29.90
2017-06-01T09:02:29.110Z,33.10
2017-06-01T09:04:56.188Z,31.30
2017-06-01T09:07:23.245Z,33.20
2017-06-01T09:09:50.317Z,35.90
2017-06-01T09:12:17.514Z,36.60
2017-06-01T09:14:44.604Z,35.40
2017-06-01T09:17:11.709Z,36.30
2017-06-01T09:19:38.893Z,34.90
2017-06-01T09:22:06.011Z,39.20
2017-06-01T09:24:33.144Z,34.50
2017-06-01T09:27:00.631Z,35.30
2017-06-01T09:29:27.714Z,34.30
2017-06-01T09:31:54.797Z,38.50
2017-06-01T09:34:21.921Z,38.00
2017-06-01T09:36:48.997Z,34.50
2017-06-01T09:39:16.077Z,39.00
2017-06-01T09:41:50.039Z,35.90
2017-06-01T09:44:17.129Z,36.80
2017-06-01T09:46:44.209Z,37.60
2017-06-01T09:49:13.209Z,35.40
2017-06-01T09:51:40.303Z,35.20
2017-06-01T09:54:07.364Z,38.30
2017-06-01T09:56:34.420Z,36.00
2017-06-01T09:59:01.485Z,38.20
2017-06-01T10:01:28.552Z,35.70
2017-06-01T10:03:55.765Z,36.00
2017-06-01T10:06:22.096Z,36.00
2017-06-01T10:08:49.897Z,36.70
2017-06-01T10:11:16.949Z,36.80
2017-06-01T10:13:44.145Z,34.60
2017-06-01T10:16:11.358Z,34.00
2017-06-01T10:18:38.492Z,34.90
2017-06-01T10:21:12.661Z,35.00
2017-06-01T10:23:39.717Z,36.80
2017-06-01T10:26:06.797Z,35.00
2017-06-01T10:28:33.881Z,37.70
2017-06-01T10:31:01.385Z,36.50
2017-06-01T10:33:28.497Z,38.80
2017-06-01T10:35:55.584Z,38.30
2017-06-01T10:38:22.653Z,37.80
2017-06-01T10:40:49.951Z,34.90
2017-06-01T10:43:24.025Z,33.80
2017-06-01T10:45:51.101Z,34.40
2017-06-01T10:48:18.158Z,38.80
2017-06-01T10:50:45.225Z,35.00
2017-06-01T10:53:12.498Z,38.90
2017-06-01T10:55:39.628Z,34.10
2017-06-01T10:58:06.720Z,36.80
2017-06-01T11:00:33.826Z,37.20
2017-06-01T11:03:00.896Z,35.50
2017-06-01T11:05:27.951Z,37.30
2017-06-01T11:07:55.021Z,37.30
2017-06-01T11:10:23.082Z,36.00
2017-06-01T11:12:50.192Z,38.40
2017-06-01T11:15:17.251Z,36.10
2017-06-01T11:17:44.337Z,34.50
2017-06-01T11:20:11.395Z,35.30
2017-06-01T11:22:38.492Z,35.30
2017-06-01T11:25:20.572Z,37.90
2017-06-01T11:27:47.656Z,35.40
2017-06-01T11:30:14.760Z,35.90
2017-06-01T11:32:41.896Z,37.30
2017-06-01T11:35:16.020Z,36.50
2017-06-01T11:37:43.226Z,34.10
2017-06-01T11:40:10.298Z,33.60
2017-06-01T11:42:37.388Z,34.40
2017-06-01T11:45:04.457Z,35.10
2017-06-01T11:47:31.528Z,35.80
2017-06-01T11:49:58.732Z,32.30
2017-06-01T11:52:26.132Z,33.20
2017-06-01T11:54:53.213Z,32.70
2017-06-01T11:57:22.698Z,32.30
2017-06-01T11:59:49.785Z,32.70
2017-06-01T12:02:16.852Z,32.90
2017-06-01T12:04:43.921Z,32.50
2017-06-01T12:07:10.993Z,36.70
2017-06-01T12:09:38.122Z,34.00
2017-06-01T12:12:05.206Z,32.10
2017-06-01T12:14:32.289Z,33.90
2017-06-01T12:16:59.348Z,37.10
2017-06-01T12:19:25.697Z,37.10
2017-06-01T12:21:52.764Z,35.70
2017-06-01T12:24:19.841Z,35.60
2017-06-01T12:26:46.897Z,32.70
2017-06-01T12:29:15.081Z,32.30
2017-06-01T12:31:42.688Z,32.50
2017-06-01T12:34:09.779Z,33.50
2017-06-01T12:36:36.861Z,31.40
2017-06-01T12:39:03.965Z,33.80
2017-06-01T12:41:31.059Z,32.20
2017-06-01T12:43:59.359Z,31.50
2017-06-01T12:46:26.421Z,33.10
2017-06-01T12:48:53.629Z,32.10
2017-06-01T12:51:20.692Z,35.80
2017-06-01T12:53:47.769Z,32.40
2017-06-01T12:56:14.825Z,34.40
2017-06-01T12:58:41.897Z,30.00
2017-06-01T13:01:08.976Z,31.10
2017-06-01T13:03:36.053Z,30.90
2017-06-01T13:06:03.116Z,30.90
2017-06-01T13:08:29.433Z,30.80
2017-06-01T13:10:56.503Z,32.30
2017-06-01T13:13:25.778Z,32.40
2017-06-01T13:15:52.852Z,32.60
2017-06-01T13:18:19.912Z,32.90
2017-06-01T13:20:46.237Z,33.10
2017-06-01T13:23:13.305Z,32.70
2017-06-01T13:25:40.433Z,30.00
2017-06-01T13:28:07.546Z,31.20
2017-06-01T13:30:34.662Z,30.00
2017-06-01T13:33:01.860Z,31.60
2017-06-01T13:35:28.940Z,32.50
2017-06-01T13:37:56.020Z,32.70
2017-06-01T13:40:23.098Z,29.20
2017-06-01T13:42:50.184Z,30.60
2017-06-01T13:45:17.301Z,28.70
2017-06-01T13:47:44.628Z,30.40
2017-06-01T13:50:11.912Z,31.80
2017-06-01T13:52:39.383Z,32.40
2017-06-01T13:55:06.696Z,29.60
2017-06-01T13:57:36.176Z,29.90
2017-06-01T14:00:03.516Z,30.80
2017-06-01T14:02:30.820Z,28.80
2017-06-01T14:04:58.144Z,32.70
2017-06-01T14:07:25.429Z,30.80
2017-06-01T14:09:52.766Z,29.90
2017-06-01T14:12:20.646Z,30.10
2017-06-01T14:14:47.892Z,30.00
2017-06-01T14:17:15.147Z,31.60
2017-06-01T14:19:42.432Z,29.30
2017-06-01T14:22:09.713Z,29.80
2017-06-01T14:24:37.020Z,31.50
2017-06-01T14:27:04.377Z,30.60
2017-06-01T14:29:32.494Z,31.10
2017-06-01T14:32:00.384Z,31.80
2017-06-01T14:34:28.057Z,31.00
2017-06-01T14:36:55.477Z,30.40
2017-06-01T14:39:22.804Z,31.60
2017-06-01T14:41:50.105Z,30.30
2017-06-01T14:44:17.505Z,30.30
2017-06-01T14:46:44.829Z,29.50
2017-06-01T14:49:12.498Z,30.20
2017-06-01T14:51:40.010Z,29.70
2017-06-01T14:54:07.345Z,28.70
2017-06-01T14:56:34.603Z,30.00
2017-06-01T14:59:01.938Z,28.70
2017-06-01T15:01:28.480Z,28.70
2017-06-01T15:03:56.292Z,30.20
2017-06-01T15:06:23.601Z,32.40
2017-06-01T15:08:50.913Z,29.50
2017-06-01T15:11:18.225Z,31.10
2017-06-01T15:13:45.521Z,30.60
2017-06-01T15:16:12.844Z,32.10
2017-06-01T15:18:40.245Z,32.80
2017-06-01T15:21:07.644Z,29.80
2017-06-01T15:23:35.026Z,32.50
2017-06-01T15:26:02.363Z,30.00
2017-06-01T15:28:30.096Z,32.30
2017-06-01T15:30:56.658Z,32.40
2017-06-01T15:33:23.960Z,30.10
2017-06-01T15:35:51.361Z,29.70
2017-06-01T15:38:18.623Z,30.20
2017-06-01T15:40:45.912Z,30.30
2017-06-01T15:43:13.318Z,29.50
2017-06-01T15:45:40.532Z,29.80
2017-06-01T15:48:07.919Z,30.10
2017-06-01T15:50:35.234Z,29.90
2017-06-01T15:53:02.633Z,30.70
2017-06-01T15:55:30.030Z,30.20
2017-06-01T15:57:58.136Z,30.60
2017-06-01T16:00:25.437Z,31.20
2017-06-01T16:02:53.553Z,31.90
2017-06-01T16:05:20.889Z,31.40
2017-06-01T16:07:48.115Z,30.20
2017-06-01T16:10:15.360Z,32.00
2017-06-01T16:12:42.643Z,29.80
2017-06-01T16:15:09.971Z,28.80
2017-06-01T16:17:37.296Z,29.20
2017-06-01T16:20:04.625Z,29.50
2017-06-01T16:22:31.953Z,28.90
2017-06-01T16:24:59.191Z,32.60
2017-06-01T16:27:26.417Z,29.40
2017-06-01T16:29:53.676Z,29.20
2017-06-01T16:32:21.026Z,30.20
2017-06-01T16:34:48.409Z,30.70
2017-06-01T16:37:15.841Z,30.70
2017-06-01T16:39:43.232Z,29.70
2017-06-01T16:42:10.549Z,29.10
2017-06-01T16:44:37.861Z,29.20
2017-06-01T16:47:05.200Z,28.90
2017-06-01T16:49:34.077Z,28.90
2017-06-01T16:52:01.399Z,30.20
2017-06-01T16:54:28.692Z,31.70
2017-06-01T16:56:56.009Z,29.50
2017-06-01T16:59:23.301Z,30.50
2017-06-01T17:01:55.530Z,29.50
2017-06-01T17:04:22.887Z,31.20
2017-06-01T17:06:50.194Z,30.00
2017-06-01T17:09:17.433Z,30.00
2017-06-01T17:11:44.777Z,29.40
2017-06-01T17:14:17.250Z,29.30
2017-06-01T17:16:44.402Z,29.30
2017-06-01T17:19:11.780Z,31.90
2017-06-01T17:21:38.990Z,30.40
2017-06-01T17:24:06.308Z,28.80
2017-06-01T17:26:33.628Z,29.10
2017-06-01T17:29:01.036Z,29.30
2017-06-01T17:31:28.233Z,29.70
2017-06-01T17:33:55.576Z,28.40
2017-06-01T17:36:22.922Z,30.00
2017-06-01T17:38:50.244Z,31.40
2017-06-01T17:41:17.676Z,31.80
2017-06-01T17:43:49.776Z,31.50
2017-06-01T17:46:17.072Z,30.60
2017-06-01T17:48:49.868Z,31.60
2017-06-01T17:51:17.064Z,31.20
2017-06-01T17:53:44.357Z,29.10
2017-06-01T17:56:16.185Z,31.00
2017-06-01T17:58:47.560Z,31.40
2017-06-01T18:01:14.187Z,31.30
2017-06-01T18:03:41.465Z,30.40
2017-06-01T18:06:08.790Z,31.40
2017-06-01T18:08:44.482Z,31.40
2017-06-01T18:11:11.865Z,31.40
2017-06-01T18:13:39.173Z,31.30
2017-06-01T18:16:06.521Z,31.00
2017-06-01T18:18:33.862Z,34.80
2017-06-01T18:21:01.080Z,34.40
2017-06-01T18:23:28.288Z,33.30
2017-06-01T18:25:55.703Z,32.50
2017-06-01T18:28:23.074Z,32.80
2017-06-01T18:30:50.617Z,33.20
2017-06-01T18:33:18.122Z,33.20
2017-06-01T18:35:45.445Z,33.30
2017-06-01T18:38:12.749Z,31.60
2017-06-01T18:40:40.443Z,33.20
2017-06-01T18:43:07.001Z,33.20
2017-06-01T18:45:34.324Z,32.30
2017-06-01T18:48:01.649Z,35.60
2017-06-01T18:50:28.996Z,36.80
2017-06-01T18:52:56.389Z,36.70
2017-06-01T18:55:23.886Z,35.10
2017-06-01T18:57:51.188Z,35.20
2017-06-01T19:00:18.507Z,35.50
2017-06-01T19:02:46.525Z,33.90
2017-06-01T19:05:13.801Z,36.80
2017-06-01T19:07:41.182Z,34.50
2017-06-01T19:10:08.369Z,35.20
2017-06-01T19:12:35.728Z,36.60
2017-06-01T19:15:03.040Z,36.10
2017-06-01T19:17:30.276Z,36.00
2017-06-01T19:19:57.612Z,36.20
2017-06-01T19:22:24.820Z,35.40
2017-06-01T19:24:54.837Z,37.80
2017-06-01T19:27:21.405Z,37.70
2017-06-01T19:29:48.779Z,37.70
2017-06-01T19:32:16.327Z,37.40
2017-06-01T19:34:43.951Z,36.70
2017-06-01T19:37:11.688Z,38.50
2017-06-01T19:39:39.041Z,38.00
2017-06-01T19:42:06.329Z,40.70
2017-06-01T19:44:33.674Z,40.10
2017-06-01T19:47:00.984Z,38.60
2017-06-01T19:49:28.387Z,37.60
2017-06-01T19:51:55.720Z,38.30
2017-06-01T19:54:23.227Z,40.20
2017-06-01T19:56:50.625Z,40.20
2017-06-01T19:59:17.936Z,40.10
2017-06-01T20:01:45.262Z,41.50
2017-06-01T20:04:12.548Z,41.00
2017-06-01T20:06:39.932Z,42.10
2017-06-01T20:09:07.435Z,42.10
2017-06-01T20:11:34.720Z,40.90
2017-06-01T20:14:02.036Z,39.50
2017-06-01T20:16:29.224Z,42.90
2017-06-01T20:18:56.525Z,44.20
2017-06-01T20:21:23.848Z,43.60
2017-06-01T20:23:51.068Z,43.20
2017-06-01T20:26:18.393Z,43.70
2017-06-01T20:28:45.763Z,43.30
2017-06-01T20:31:13.109Z,44.40
2017-06-01T20:33:40.754Z,44.50
2017-06-01T20:36:08.088Z,44.50
2017-06-01T20:38:35.320Z,45.90
2017-06-01T20:41:02.819Z,46.40
2017-06-01T20:43:29.396Z,46.30
2017-06-01T20:45:56.696Z,44.90
2017-06-01T20:48:23.870Z,45.80
2017-06-01T20:50:51.104Z,46.60
2017-06-01T20:53:18.444Z,45.00
2017-06-01T20:55:45.771Z,45.80
2017-06-01T20:58:13.083Z,45.40
2017-06-01T21:00:40.560Z,46.90
2017-06-01T21:03:07.868Z,47.30
2017-06-01T21:05:35.197Z,45.30
2017-06-01T21:08:02.509Z,46.10
2017-06-01T21:10:30.091Z,47.10
2017-06-01T21:12:57.295Z,47.90
2017-06-01T21:15:24.645Z,47.30
2017-06-01T21:17:51.965Z,47.70
2017-06-01T21:20:19.155Z,48.50
2017-06-01T21:22:46.595Z,49.30
2017-06-01T21:25:13.904Z,48.40
2017-06-01T21:27:40.572Z,48.40
2017-06-01T21:30:08.029Z,48.80
2017-06-01T21:32:35.380Z,49.60
2017-06-01T21:35:02.718Z,49.70
2017-06-01T21:37:30.087Z,50.60
2017-06-01T21:39:57.402Z,48.90
2017-06-01T21:42:24.778Z,49.20
2017-06-01T21:45:06.929Z,49.90
2017-06-01T21:47:34.353Z,49.50
2017-06-01T21:50:01.669Z,48.40
2017-06-01T21:52:28.872Z,48.90
2017-06-01T21:55:11.113Z,50.40
2017-06-01T21:57:38.402Z,49.70
2017-06-01T22:00:05.828Z,49.80
2017-06-01T22:02:33.184Z,50.40
2017-06-01T22:05:00.504Z,50.70
2017-06-01T22:07:27.854Z,50.90
2017-06-01T22:09:55.210Z,50.20
2017-06-01T22:12:22.501Z,49.90
2017-06-01T22:14:49.792Z,49.50
2017-06-01T22:17:17.068Z,49.50
2017-06-01T22:19:44.412Z,50.00
2017-06-01T22:22:12.060Z,50.50
2017-06-01T22:24:39.428Z,50.60
2017-06-01T22:27:06.757Z,50.60
2017-06-01T22:29:34.079Z,50.50
2017-06-01T22:32:01.373Z,50.30
2017-06-01T22:34:28.666Z,49.80
2017-06-01T22:36:56.231Z,50.30
2017-06-01T22:39:22.848Z,50.40
2017-06-01T22:41:50.118Z,50.10
2017-06-01T22:44:17.404Z,51.00
2017-06-01T22:46:44.707Z,51.40
2017-06-01T22:49:11.992Z,51.80
2017-06-01T22:51:39.328Z,51.50
2017-06-01T22:54:06.810Z,51.60
2017-06-01T22:56:34.143Z,51.60
2017-06-01T22:59:01.452Z,52.10
2017-06-01T23:01:28.789Z,52.70
2017-06-01T23:03:56.119Z,52.60
2017-06-01T23:06:23.446Z,52.50
2017-06-01T23:08:50.801Z,52.60
2017-06-01T23:11:18.068Z,52.60
2017-06-01T23:13:45.433Z,52.00
2017-06-01T23:16:12.837Z,51.90
2017-06-01T23:18:40.215Z,52.40
2017-06-01T23:21:07.493Z,53.40
2017-06-01T23:23:34.781Z,53.90
2017-06-01T23:26:02.159Z,53.70
2017-06-01T23:28:29.494Z,52.40
2017-06-01T23:30:56.781Z,52.40
2017-06-01T23:33:24.070Z,52.50
2017-06-01T23:35:51.360Z,53.50
2017-06-01T23:38:18.615Z,53.20
2017-06-01T23:40:45.989Z,53.50
2017-06-01T23:43:13.604Z,54.00
2017-06-01T23:45:40.998Z,54.20
2017-06-01T23:48:08.282Z,54.00
2017-06-01T23:50:35.602Z,52.90
2017-06-01T23:53:02.900Z,52.80
2017-06-01T23:55:30.719Z,53.10
2017-06-01T23:57:58.021Z,52.90
